Kowanda, Nebraska
Current Conditions -  °F | °C
As of 2:53 AM on Saturday 29 Nov 2014 (Local Time) from KAIA Reporting Station
Clear Clear  
Wind Chill: 23°   Ceiling: Unl
Heat Index: 31°   Visibility: 10mi
Dew Point: 19°   Wind: 8mph
Humidity: 61%   Direction: 180°S
Pressure: 29.61"   Gusts: NA
Location:  41.7534°N, 102.325°W
Report Text: KAIA 290953Z AUTO 18007KT 10SM CLR M01/M07 A2961 RMK AO2 SLP018 T10061072
Loading
Personal Weather Stations






























Interactive Weather Map New forecast layout! Learn more

10-Day Weather Forecast

Advertisements
Track Severe Weather on mobile